Time;durP1;ratioP1;P1;durP2;ratioP2;P2;SDS_P1;SDS_P2;PMS_P1;PMS_P2;Temp;Humidity;BMP_temperature;BMP_pressure;BME280_temperature;BME280_humidity;BME280_pressure;Samples;Min_cycle;Max_cycle;Signal;HPM_P1;HPM_P2
2021/06/29 00:00:14;;;;;;;;;;;;;;;;;;4907623;29;20366;-88
2021/06/29 00:02:41;;;;;;;;;;;;;;;;;;4890064;29;19915;-88
2021/06/29 00:05:08;;;;;;;;;;;;;;;;;;4904052;29;23457;-88
2021/06/29 00:07:34;;;;;;;;;;;;;;;;;;4907915;29;19919;-88
2021/06/29 00:10:01;;;;;;;;;;;;;;;;;;4906006;29;19949;-89
2021/06/29 00:12:28;;;;;;;;;;;;;;;;;;4908616;29;20338;-88
2021/06/29 00:14:55;;;;;;;;;;;;;;;;;;4904513;29;19938;-88
2021/06/29 00:17:21;;;;;;;;;;;;;;;;;;4907920;29;20006;-89
2021/06/29 00:19:48;;;;;;;;;;;;;;;;;;4903813;29;20037;-88
2021/06/29 00:22:15;;;;;;;;;;;;;;;;;;4907795;29;20009;-88
2021/06/29 00:24:41;;;;;;;;;;;;;;;;;;4908235;29;19926;-88
2021/06/29 00:27:08;;;;;;;;;;;;;;;;;;4903740;29;19923;-88
2021/06/29 00:29:35;;;;;;;;;;;;;;;;;;4906424;29;19915;-87
2021/06/29 00:32:03;;;;;;;;;;;;;;;;;;4887478;29;19922;-89
2021/06/29 00:34:29;;;;;;;;;;;;;;;;;;4915446;29;19933;-88
2021/06/29 00:36:56;;;;;;;;;;;;;;;;;;4900447;29;19926;-88
2021/06/29 00:39:23;;;;;;;;;;;;;;;;;;4914605;29;19946;-88
2021/06/29 00:41:49;;;;;;;;;;;;;;;;;;4903511;29;20001;-89
2021/06/29 00:44:16;;;;;;;;;;;;;;;;;;4921166;29;19915;-88
2021/06/29 00:46:42;;;;;;;;;;;;;;;;;;4903761;29;19918;-88
2021/06/29 00:49:09;;;;;;;;;;;;;;;;;;4920947;29;19998;-88
2021/06/29 00:51:36;;;;;;;;;;;;;;;;;;4905244;29;20010;-88
2021/06/29 00:54:02;;;;;;;;;;;;;;;;;;4904868;29;19923;-88
2021/06/29 00:56:28;;;;;;;;;;;;;;;;;;4907028;29;22607;-89
2021/06/29 00:58:55;;;;;;;;;;;;;;;;;;4906421;29;20010;-88
2021/06/29 01:01:22;;;;;;;;;;;;;;;;;;4906803;29;19915;-88
2021/06/29 01:03:48;;;;;;;;;;;;;;;;;;4905001;29;19920;-88
2021/06/29 01:06:15;;;;;;;;;;;;;;;;;;4907100;29;20010;-88
2021/06/29 01:08:42;;;;;;;;;;;;;;;;;;4907701;29;19927;-88
2021/06/29 01:11:09;;;;;;;;;;;;;;;;;;4904112;29;19930;-88
2021/06/29 01:13:37;;;;;;;;;;;;;;;;;;4905034;29;19927;-89
2021/06/29 01:16:05;;;;;;;;;;;;;;;;;;4918095;29;20303;-89
2021/06/29 01:18:31;;;;;;;;;;;;;;;;;;4920246;29;19969;-88
2021/06/29 01:20:58;;;;;;;;;;;;;;;;;;4903997;29;19916;-88
2021/06/29 01:23:27;;;;;;;;;;;;;;;;;;4903702;29;19916;-88
2021/06/29 01:25:53;;;;;;;;;;;;;;;;;;4901218;29;19915;-89
2021/06/29 01:28:24;;;;;;;;;;;;;;;;;;4906802;29;20290;-88
2021/06/29 01:31:06;;;;;;;;;;;;;;;;;;4904200;29;19938;-88
2021/06/29 01:33:33;;;;;;;;;;;;;;;;;;4902859;29;20343;-88
2021/06/29 01:36:01;;;;;;;;;;;;;;;;;;4902117;29;19974;-89
2021/06/29 01:38:27;;;;;;;;;;;;;;;;;;4907463;29;20340;-88
2021/06/29 01:40:54;;;;;;;;;;;;;;;;;;4903432;29;19930;-88
2021/06/29 01:43:35;;;;;;;;;;;;;;;;;;4906972;29;20059;-88
2021/06/29 01:46:01;;;;;;;;;;;;;;;;;;4901189;29;19926;-88
2021/06/29 01:48:28;;;;;;;;;;;;;;;;;;4902631;29;19923;-88
2021/06/29 01:50:54;;;;;;;;;;;;;;;;;;4887418;29;19942;-88
2021/06/29 01:53:21;;;;;;;;;;;;;;;;;;4906224;29;19931;-89
2021/06/29 01:55:47;;;;;;;;;;;;;;;;;;4903592;29;19931;-88
2021/06/29 01:58:22;;;;;;;;;;;;;;;;;;4902768;29;20307;-88
2021/06/29 02:00:49;;;;;;;;;;;;;;;;;;4900413;29;20394;-88
2021/06/29 02:03:15;;;;;;;;;;;;;;;;;;4889838;29;20002;-88
2021/06/29 02:05:42;;;;;;;;;;;;;;;;;;4903514;29;19923;-88
2021/06/29 02:08:09;;;;;;;;;;;;;;;;;;4902945;29;19924;-88
2021/06/29 02:10:36;;;;;;;;;;;;;;;;;;4903397;29;19916;-88
2021/06/29 02:13:02;;;;;;;;;;;;;;;;;;4903425;29;19919;-88
2021/06/29 02:15:29;;;;;;;;;;;;;;;;;;4905119;29;19961;-88
2021/06/29 02:17:56;;;;;;;;;;;;;;;;;;4901787;29;19941;-88
2021/06/29 02:20:22;;;;;;;;;;;;;;;;;;4905474;29;19915;-88
2021/06/29 02:22:51;;;;;;;;;;;;;;;;;;4905078;29;20499;-89
2021/06/29 02:25:18;;;;;;;;;;;;;;;;;;4899625;29;19967;-88
2021/06/29 02:27:44;;;;;;;;;;;;;;;;;;4903675;29;19916;-87
2021/06/29 02:30:11;;;;;;;;;;;;;;;;;;4897838;29;19926;-88
2021/06/29 02:32:37;;;;;;;;;;;;;;;;;;4898093;29;19955;-89
2021/06/29 02:35:03;;;;;;;;;;;;;;;;;;4903548;29;19923;-87
2021/06/29 02:37:30;;;;;;;;;;;;;;;;;;4903036;29;19922;-88
2021/06/29 02:39:56;;;;;;;;;;;;;;;;;;4902511;29;19919;-87
2021/06/29 02:42:23;;;;;;;;;;;;;;;;;;4904529;29;20026;-88
2021/06/29 02:44:49;;;;;;;;;;;;;;;;;;4900651;29;21472;-88
2021/06/29 02:47:16;;;;;;;;;;;;;;;;;;4902318;29;19915;-88
2021/06/29 02:49:43;;;;;;;;;;;;;;;;;;4902590;29;19939;-88
2021/06/29 02:52:09;;;;;;;;;;;;;;;;;;4901432;29;20475;-88
2021/06/29 02:54:36;;;;;;;;;;;;;;;;;;4901177;29;20013;-88
2021/06/29 02:57:03;;;;;;;;;;;;;;;;;;4901809;29;22061;-88
2021/06/29 02:59:29;;;;;;;;;;;;;;;;;;4897647;29;19926;-87
2021/06/29 03:01:56;;;;;;;;;;;;;;;;;;4892776;29;19919;-89
2021/06/29 03:04:23;;;;;;;;;;;;;;;;;;4879122;29;19919;-87
2021/06/29 03:06:50;;;;;;;;;;;;;;;;;;4896096;29;19923;-87
2021/06/29 03:09:16;;;;;;;;;;;;;;;;;;4893593;29;19935;-88
2021/06/29 03:11:43;;;;;;;;;;;;;;;;;;4905652;29;19935;-88
2021/06/29 03:14:10;;;;;;;;;;;;;;;;;;4906614;29;19923;-87
2021/06/29 03:16:37;;;;;;;;;;;;;;;;;;4908189;29;19923;-88
2021/06/29 03:19:03;;;;;;;;;;;;;;;;;;4905776;29;19919;-88
2021/06/29 03:21:30;;;;;;;;;;;;;;;;;;4894137;29;19919;-87
2021/06/29 03:23:56;;;;;;;;;;;;;;;;;;4908555;29;19979;-88
2021/06/29 03:26:23;;;;;;;;;;;;;;;;;;4910104;29;19923;-88
2021/06/29 03:28:49;;;;;;;;;;;;;;;;;;4908594;29;19938;-87
2021/06/29 03:31:16;;;;;;;;;;;;;;;;;;4911501;29;19923;-88
2021/06/29 03:33:43;;;;;;;;;;;;;;;;;;4914867;29;19929;-88
2021/06/29 03:36:10;;;;;;;;;;;;;;;;;;4909726;29;20362;-89
2021/06/29 03:38:37;;;;;;;;;;;;;;;;;;4924131;29;20315;-88
2021/06/29 03:41:04;;;;;;;;;;;;;;;;;;4924421;29;19915;-88
2021/06/29 03:43:34;;;;;;;;;;;;;;;;;;4911954;29;19978;-88
2021/06/29 03:46:00;;;;;;;;;;;;;;;;;;4910278;29;20561;-88
2021/06/29 03:48:26;;;;;;;;;;;;;;;;;;4909854;29;20403;-89
2021/06/29 03:50:53;;;;;;;;;;;;;;;;;;4924431;29;20378;-88
2021/06/29 03:53:20;;;;;;;;;;;;;;;;;;4909161;29;19927;-89
2021/06/29 03:55:46;;;;;;;;;;;;;;;;;;4923359;29;19926;-88
2021/06/29 03:58:13;;;;;;;;;;;;;;;;;;4925428;29;22034;-89
2021/06/29 04:00:39;;;;;;;;;;;;;;;;;;4908735;29;19926;-89
2021/06/29 04:03:06;;;;;;;;;;;;;;;;;;4922648;29;20017;-89
2021/06/29 04:05:32;;;;;;;;;;;;;;;;;;4923845;29;19950;-89
2021/06/29 04:07:59;;;;;;;;;;;;;;;;;;4909871;29;19919;-88
2021/06/29 04:10:26;;;;;;;;;;;;;;;;;;4908430;29;19918;-89
2021/06/29 04:12:53;;;;;;;;;;;;;;;;;;4920416;29;19927;-88
2021/06/29 04:15:20;;;;;;;;;;;;;;;;;;4912211;29;20351;-88
2021/06/29 04:17:46;;;;;;;;;;;;;;;;;;4928430;29;19958;-88
2021/06/29 04:20:13;;;;;;;;;;;;;;;;;;4912750;29;19926;-87
2021/06/29 04:22:39;;;;;;;;;;;;;;;;;;4910894;29;19922;-87
2021/06/29 04:25:06;;;;;;;;;;;;;;;;;;4924452;29;19919;-87
2021/06/29 04:27:33;;;;;;;;;;;;;;;;;;4913501;29;19923;-87
2021/06/29 04:29:59;;;;;;;;;;;;;;;;;;4910146;29;19954;-87
2021/06/29 04:32:25;;;;;;;;;;;;;;;;;;4908116;29;19950;-87
2021/06/29 04:34:52;;;;;;;;;;;;;;;;;;4908058;29;19930;-87
2021/06/29 04:37:19;;;;;;;;;;;;;;;;;;4893343;29;19966;-87
2021/06/29 04:39:46;;;;;;;;;;;;;;;;;;4907876;29;19915;-87
2021/06/29 04:42:13;;;;;;;;;;;;;;;;;;4910216;29;19919;-87
2021/06/29 04:44:40;;;;;;;;;;;;;;;;;;4908364;29;19919;-87
2021/06/29 04:47:06;;;;;;;;;;;;;;;;;;4910277;29;19923;-88
2021/06/29 04:49:32;;;;;;;;;;;;;;;;;;4906117;29;19926;-86
2021/06/29 04:51:59;;;;;;;;;;;;;;;;;;4908466;29;19919;-87
2021/06/29 04:54:26;;;;;;;;;;;;;;;;;;4904550;29;19979;-87
2021/06/29 04:56:53;;;;;;;;;;;;;;;;;;4907261;29;19919;-87
2021/06/29 04:59:19;;;;;;;;;;;;;;;;;;4892860;29;19923;-87
2021/06/29 05:01:46;;;;;;;;;;;;;;;;;;4904065;29;19927;-88
2021/06/29 05:04:12;;;;;;;;;;;;;;;;;;4906594;29;19919;-87
2021/06/29 05:06:39;;;;;;;;;;;;;;;;;;4887001;29;19930;-87
2021/06/29 05:09:05;;;;;;;;;;;;;;;;;;4900845;29;20010;-87
2021/06/29 05:11:32;;;;;;;;;;;;;;;;;;4910922;29;19915;-87
2021/06/29 05:13:59;;;;;;;;;;;;;;;;;;4892089;29;19929;-87
2021/06/29 05:16:25;;;;;;;;;;;;;;;;;;4892356;29;19920;-87
2021/06/29 05:18:52;;;;;;;;;;;;;;;;;;4904588;29;20921;-87
2021/06/29 05:21:19;;;;;;;;;;;;;;;;;;4906949;29;20363;-87
2021/06/29 05:23:45;;;;;;;;;;;;;;;;;;4893293;29;20992;-86
2021/06/29 05:26:12;;;;;;;;;;;;;;;;;;4889324;29;19927;-87
2021/06/29 05:28:39;;;;;;;;;;;;;;;;;;4909931;29;20001;-87
2021/06/29 05:31:06;;;;;;;;;;;;;;;;;;4905175;29;20434;-87
2021/06/29 05:33:33;;;;;;;;;;;;;;;;;;4902907;29;19934;-85
2021/06/29 05:36:00;;;;;;;;;;;;;;;;;;4903888;29;19915;-84
2021/06/29 05:38:27;;;;;;;;;;;;;;;;;;4884216;29;19930;-83
2021/06/29 05:40:55;;;;;;;;;;;;;;;;;;4895534;29;19965;-83
2021/06/29 05:43:22;;;;;;;;;;;;;;;;;;4901359;29;19919;-83
2021/06/29 05:45:48;;;;;;;;;;;;;;;;;;4901781;29;19919;-83
2021/06/29 05:48:17;;;;;;;;;;;;;;;;;;4899749;29;20006;-84
2021/06/29 05:50:44;;;;;;;;;;;;;;;;;;4903945;29;19923;-84
2021/06/29 05:53:11;;;;;;;;;;;;;;;;;;4900030;29;20022;-84
2021/06/29 05:55:38;;;;;;;;;;;;;;;;;;4888624;29;19970;-84
2021/06/29 05:58:05;;;;;;;;;;;;;;;;;;4887298;29;19915;-84
2021/06/29 06:00:31;;;;;;;;;;;;;;;;;;4905198;29;19925;-84
2021/06/29 06:02:58;;;;;;;;;;;;;;;;;;4904958;29;19923;-84
2021/06/29 06:05:24;;;;;;;;;;;;;;;;;;4903196;29;20283;-84
2021/06/29 06:07:54;;;;;;;;;;;;;;;;;;4888310;29;19915;-84
2021/06/29 06:10:21;;;;;;;;;;;;;;;;;;4905893;29;19915;-85
2021/06/29 06:12:48;;;;;;;;;;;;;;;;;;4900179;29;19923;-85
2021/06/29 06:15:15;;;;;;;;;;;;;;;;;;4885828;29;19915;-85
2021/06/29 06:17:42;;;;;;;;;;;;;;;;;;4896680;29;19912;-84
2021/06/29 06:20:12;;;;;;;;;;;;;;;;;;4904874;29;20390;-86
2021/06/29 06:22:38;;;;;;;;;;;;;;;;;;4907434;29;19925;-85
2021/06/29 06:25:05;;;;;;;;;;;;;;;;;;4902193;29;19923;-85
2021/06/29 06:27:32;;;;;;;;;;;;;;;;;;4906449;29;19915;-84
2021/06/29 06:29:58;;;;;;;;;;;;;;;;;;4905662;29;19947;-85
2021/06/29 06:32:24;;;;;;;;;;;;;;;;;;4906008;29;19919;-85
2021/06/29 06:34:51;;;;;;;;;;;;;;;;;;4885764;29;20003;-84
2021/06/29 06:37:18;;;;;;;;;;;;;;;;;;4901090;29;19946;-85
2021/06/29 06:39:45;;;;;;;;;;;;;;;;;;4900801;29;20289;-85
2021/06/29 06:42:11;;;;;;;;;;;;;;;;;;4902613;29;19930;-85
2021/06/29 06:44:38;;;;;;;;;;;;;;;;;;4902766;29;20009;-83
2021/06/29 06:47:05;;;;;;;;;;;;;;;;;;4906380;29;19970;-85
2021/06/29 06:49:31;;;;;;;;;;;;;;;;;;4907802;29;20013;-84
2021/06/29 06:51:58;;;;;;;;;;;;;;;;;;4902843;29;19927;-85
2021/06/29 06:54:24;;;;;;;;;;;;;;;;;;4889871;29;19919;-86
2021/06/29 06:56:53;;;;;;;;;;;;;;;;;;4903738;29;20014;-86
2021/06/29 06:59:19;;;;;;;;;;;;;;;;;;4911990;29;20033;-88
2021/06/29 07:01:46;;;;;;;;;;;;;;;;;;4911013;29;20006;-87
2021/06/29 07:04:12;;;;;;;;;;;;;;;;;;4910660;29;19923;-87
2021/06/29 07:06:39;;;;;;;;;;;;;;;;;;4897459;29;20387;-87
2021/06/29 07:09:06;;;;;;;;;;;;;;;;;;4916777;29;20051;-87
2021/06/29 07:11:32;;;;;;;;;;;;;;;;;;4906448;29;20381;-86
2021/06/29 07:13:59;;;;;;;;;;;;;;;;;;4917422;29;19923;-87
2021/06/29 07:16:26;;;;;;;;;;;;;;;;;;4921218;29;20029;-87
2021/06/29 07:18:53;;;;;;;;;;;;;;;;;;4926935;29;19926;-87
2021/06/29 07:21:25;;;;;;;;;;;;;;;;;;4925836;29;20485;-85
2021/06/29 07:23:52;;;;;;;;;;;;;;;;;;4903458;29;19922;-84
2021/06/29 07:26:19;;;;;;;;;;;;;;;;;;4921784;29;19915;-83
2021/06/29 07:28:45;;;;;;;;;;;;;;;;;;4917312;29;20076;-82
2021/06/29 07:31:11;;;;;;;;;;;;;;;;;;4915799;29;19985;-84
2021/06/29 07:33:37;;;;;;;;;;;;;;;;;;4923413;29;19982;-83
2021/06/29 07:36:03;;;;;;;;;;;;;;;;;;4913946;29;19919;-83
2021/06/29 07:38:29;;;;;;;;;;;;;;;;;;4932985;29;20002;-83
2021/06/29 07:40:55;;;;;;;;;;;;;;;;;;4933085;29;19938;-82
2021/06/29 07:43:22;;;;;;;;;;;;;;;;;;4941015;29;19919;-83
2021/06/29 07:45:48;;;;;;;;;;;;;;;;;;4917619;29;19915;-83
2021/06/29 07:48:15;;;;;;;;;;;;;;;;;;4916575;29;19915;-84
2021/06/29 07:50:42;;;;;;;;;;;;;;;;;;4914858;29;20346;-84
2021/06/29 07:53:09;;;;;;;;;;;;;;;;;;4912785;29;20378;-83
2021/06/29 07:55:36;;;;;;;;;;;;;;;;;;4915643;29;19915;-82
2021/06/29 07:58:03;;;;;;;;;;;;;;;;;;4930583;29;20375;-82
2021/06/29 08:00:30;;;;;;;;;;;;;;;;;;4935373;29;19911;-82
2021/06/29 08:02:58;;;;;;;;;;;;;;;;;;4933464;29;20434;-82
2021/06/29 08:05:25;;;;;;;;;;;;;;;;;;4916234;29;19963;-83
2021/06/29 08:07:51;;;;;;;;;;;;;;;;;;4924722;29;20022;-83
2021/06/29 08:10:18;;;;;;;;;;;;;;;;;;4912352;29;19915;-82
2021/06/29 08:12:45;;;;;;;;;;;;;;;;;;4915993;29;20050;-81
2021/06/29 08:15:12;;;;;;;;;;;;;;;;;;4912845;29;19916;-83
2021/06/29 08:17:38;;;;;;;;;;;;;;;;;;4930465;29;19994;-83
2021/06/29 08:20:05;;;;;;;;;;;;;;;;;;4928960;29;19915;-83
2021/06/29 08:22:32;;;;;;;;;;;;;;;;;;4919911;29;19915;-83
2021/06/29 08:24:59;;;;;;;;;;;;;;;;;;4913478;29;19922;-83
2021/06/29 08:27:29;;;;;;;;;;;;;;;;;;4918810;29;19915;-83
2021/06/29 08:29:58;;;;;;;;;;;;;;;;;;4933940;29;19918;-86
2021/06/29 08:32:24;;;;;;;;;;;;;;;;;;4920532;29;19961;-84
2021/06/29 08:34:50;;;;;;;;;;;;;;;;;;4914079;29;21224;-85
2021/06/29 08:37:17;;;;;;;;;;;;;;;;;;4917961;29;20401;-85
2021/06/29 08:39:44;;;;;;;;;;;;;;;;;;4896507;29;19919;-84
2021/06/29 08:42:13;;;;;;;;;;;;;;;;;;4896777;29;19930;-85
2021/06/29 08:44:39;;;;;;;;;;;;;;;;;;4922503;29;19962;-84
2021/06/29 08:47:06;;;;;;;;;;;;;;;;;;4914709;29;20014;-85
2021/06/29 08:49:33;;;;;;;;;;;;;;;;;;4912339;29;19919;-84
2021/06/29 08:52:00;;;;;;;;;;;;;;;;;;4913846;29;19915;-84
2021/06/29 08:54:26;;;;;;;;;;;;;;;;;;4898138;29;19923;-84
2021/06/29 08:56:53;;;;;;;;;;;;;;;;;;4915186;29;19998;-84
2021/06/29 08:59:19;;;;;;;;;;;;;;;;;;4899224;29;20014;-83
2021/06/29 09:01:46;;;;;;;;;;;;;;;;;;4913824;29;19919;-83
2021/06/29 09:04:12;;;;;;;;;;;;;;;;;;4920202;29;20371;-84
2021/06/29 09:06:39;;;;;;;;;;;;;;;;;;4920025;29;19923;-83
2021/06/29 09:09:06;;;;;;;;;;;;;;;;;;4919987;29;20435;-84
2021/06/29 09:11:33;;;;;;;;;;;;;;;;;;4906365;29;19915;-84
2021/06/29 09:14:01;;;;;;;;;;;;;;;;;;4915819;29;20394;-85
2021/06/29 09:16:27;;;;;;;;;;;;;;;;;;4919242;29;19915;-86
2021/06/29 09:18:53;;;;;;;;;;;;;;;;;;4913542;29;19915;-85
2021/06/29 09:21:19;;;;;;;;;;;;;;;;;;4916797;29;19927;-86
2021/06/29 09:23:49;;;;;;;;;;;;;;;;;;4915099;29;20070;-85
2021/06/29 09:26:16;;;;;;;;;;;;;;;;;;4918345;29;19926;-85
2021/06/29 09:28:46;;;;;;;;;;;;;;;;;;4910317;29;19926;-85
2021/06/29 09:31:12;;;;;;;;;;;;;;;;;;4905154;29;20801;-85
2021/06/29 09:33:38;;;;;;;;;;;;;;;;;;4908368;29;19923;-84
2021/06/29 09:36:04;;;;;;;;;;;;;;;;;;4917567;29;19919;-85
2021/06/29 09:38:30;;;;;;;;;;;;;;;;;;4920293;29;19964;-85
2021/06/29 09:40:56;;;;;;;;;;;;;;;;;;4914969;29;19922;-87
2021/06/29 09:43:22;;;;;;;;;;;;;;;;;;4918854;29;20006;-85
2021/06/29 09:45:50;;;;;;;;;;;;;;;;;;4914969;29;19916;-87
2021/06/29 09:48:17;;;;;;;;;;;;;;;;;;4908133;29;19922;-84
2021/06/29 09:50:51;;;;;;;;;;;;;;;;;;4922562;29;20245;-85
2021/06/29 09:53:17;;;;;;;;;;;;;;;;;;4919269;29;19946;-87
2021/06/29 09:55:43;;;;;;;;;;;;;;;;;;4912150;29;19980;-86
2021/06/29 09:58:09;;;;;;;;;;;;;;;;;;4916985;29;20320;-86
2021/06/29 10:00:35;;;;;;;;;;;;;;;;;;4919088;29;19951;-87
2021/06/29 10:03:02;;;;;;;;;;;;;;;;;;4906269;29;19918;-86
2021/06/29 10:05:31;;;;;;;;;;;;;;;;;;4911151;29;19923;-86
2021/06/29 10:07:57;;;;;;;;;;;;;;;;;;4916163;29;20540;-85
2021/06/29 10:10:23;;;;;;;;;;;;;;;;;;4911494;29;19975;-85
2021/06/29 10:12:49;;;;;;;;;;;;;;;;;;4923488;29;20031;-85
2021/06/29 10:15:15;;;;;;;;;;;;;;;;;;4909189;29;19951;-85
2021/06/29 10:17:42;;;;;;;;;;;;;;;;;;4915129;29;19931;-85
2021/06/29 10:20:23;;;;;;;;;;;;;;;;;;4896277;29;20025;-85
2021/06/29 10:22:50;;;;;;;;;;;;;;;;;;4919910;29;19922;-86
2021/06/29 10:25:17;;;;;;;;;;;;;;;;;;4913501;29;19919;-85
2021/06/29 10:27:43;;;;;;;;;;;;;;;;;;4923406;29;20050;-85
2021/06/29 10:30:09;;;;;;;;;;;;;;;;;;4921010;29;19926;-85
2021/06/29 10:32:35;;;;;;;;;;;;;;;;;;4914451;29;19915;-88
2021/06/29 10:35:01;;;;;;;;;;;;;;;;;;4917879;29;20008;-85
2021/06/29 10:37:27;;;;;;;;;;;;;;;;;;4914024;29;19975;-85
2021/06/29 10:39:53;;;;;;;;;;;;;;;;;;4911695;29;19923;-84
2021/06/29 10:42:19;;;;;;;;;;;;;;;;;;4914599;29;19949;-86
2021/06/29 10:44:45;;;;;;;;;;;;;;;;;;4914094;29;19920;-86
2021/06/29 10:47:11;;;;;;;;;;;;;;;;;;4920045;29;19919;-86
2021/06/29 10:49:37;;;;;;;;;;;;;;;;;;4918321;29;19983;-86
2021/06/29 10:52:03;;;;;;;;;;;;;;;;;;4897812;29;20354;-86
2021/06/29 10:54:29;;;;;;;;;;;;;;;;;;4916677;29;19923;-85
2021/06/29 10:56:55;;;;;;;;;;;;;;;;;;4917108;29;19915;-86
2021/06/29 10:59:21;;;;;;;;;;;;;;;;;;4915790;29;19915;-87
2021/06/29 11:01:47;;;;;;;;;;;;;;;;;;4910694;29;19923;-85
2021/06/29 11:04:13;;;;;;;;;;;;;;;;;;4915153;29;19938;-83
2021/06/29 11:06:46;;;;;;;;;;;;;;;;;;4912689;29;20013;-82
2021/06/29 11:09:12;;;;;;;;;;;;;;;;;;4911076;29;19925;-84
2021/06/29 11:11:39;;;;;;;;;;;;;;;;;;4914230;29;19942;-83
2021/06/29 11:14:06;;;;;;;;;;;;;;;;;;4908570;29;19958;-83
2021/06/29 11:16:33;;;;;;;;;;;;;;;;;;4912392;29;19915;-83
2021/06/29 11:19:00;;;;;;;;;;;;;;;;;;4908317;29;19916;-84
2021/06/29 11:21:27;;;;;;;;;;;;;;;;;;4913926;29;19966;-84
2021/06/29 11:23:54;;;;;;;;;;;;;;;;;;4912009;29;20264;-85
2021/06/29 11:26:20;;;;;;;;;;;;;;;;;;4913694;29;20380;-85
2021/06/29 11:28:48;;;;;;;;;;;;;;;;;;4911103;29;19915;-85
2021/06/29 11:31:13;;;;;;;;;;;;;;;;;;4918463;29;19915;-85
2021/06/29 11:33:40;;;;;;;;;;;;;;;;;;4920477;29;19923;-85
2021/06/29 11:36:06;;;;;;;;;;;;;;;;;;4923122;29;19915;-86
2021/06/29 11:38:32;;;;;;;;;;;;;;;;;;4924073;29;19915;-86
2021/06/29 11:40:58;;;;;;;;;;;;;;;;;;4903964;29;20387;-85
2021/06/29 11:43:24;;;;;;;;;;;;;;;;;;4920561;29;19966;-84
2021/06/29 11:45:50;;;;;;;;;;;;;;;;;;4918715;29;19962;-85
2021/06/29 11:48:16;;;;;;;;;;;;;;;;;;4921556;29;19915;-85
2021/06/29 11:50:42;;;;;;;;;;;;;;;;;;4919834;29;19926;-85
2021/06/29 11:53:08;;;;;;;;;;;;;;;;;;4920483;29;19979;-85
2021/06/29 11:55:35;;;;;;;;;;;;;;;;;;4916815;29;19915;-86
2021/06/29 11:58:01;;;;;;;;;;;;;;;;;;4919465;29;19923;-84
2021/06/29 12:00:27;;;;;;;;;;;;;;;;;;4923407;29;19950;-85
2021/06/29 12:02:54;;;;;;;;;;;;;;;;;;4920843;29;19915;-85
2021/06/29 12:05:20;;;;;;;;;;;;;;;;;;4920593;29;19915;-86
2021/06/29 12:07:46;;;;;;;;;;;;;;;;;;4925591;29;19922;-89
2021/06/29 12:10:12;;;;;;;;;;;;;;;;;;4934458;29;19943;-87
2021/06/29 12:12:38;;;;;;;;;;;;;;;;;;4933981;29;19916;-86
2021/06/29 12:15:05;;;;;;;;;;;;;;;;;;4944344;29;19919;-84
2021/06/29 12:17:31;;;;;;;;;;;;;;;;;;4937883;29;19919;-85
2021/06/29 12:19:57;;;;;;;;;;;;;;;;;;4923223;29;20366;-85
2021/06/29 12:22:23;;;;;;;;;;;;;;;;;;4927995;29;19919;-86
2021/06/29 12:24:49;;;;;;;;;;;;;;;;;;4937873;29;19906;-87
2021/06/29 12:27:15;;;;;;;;;;;;;;;;;;4939333;29;20362;-86
2021/06/29 12:29:41;;;;;;;;;;;;;;;;;;4942494;29;19904;-87
2021/06/29 12:32:07;;;;;;;;;;;;;;;;;;4925560;29;19934;-87
2021/06/29 12:34:33;;;;;;;;;;;;;;;;;;4940484;29;20013;-87
2021/06/29 12:36:59;;;;;;;;;;;;;;;;;;4922647;29;20127;-86
2021/06/29 12:39:25;;;;;;;;;;;;;;;;;;4935511;29;19978;-88
2021/06/29 12:41:51;;;;;;;;;;;;;;;;;;4936572;29;19923;-87
2021/06/29 12:44:17;;;;;;;;;;;;;;;;;;4932898;29;19982;-87
2021/06/29 12:46:44;;;;;;;;;;;;;;;;;;4933058;29;19923;-87
2021/06/29 12:49:10;;;;;;;;;;;;;;;;;;4932727;29;19958;-85
2021/06/29 12:51:36;;;;;;;;;;;;;;;;;;4930394;29;19923;-86
2021/06/29 12:54:02;;;;;;;;;;;;;;;;;;4938545;29;19903;-87
2021/06/29 12:56:28;;;;;;;;;;;;;;;;;;4939167;29;19915;-86
2021/06/29 12:58:54;;;;;;;;;;;;;;;;;;4943836;29;19922;-87
2021/06/29 13:01:20;;;;;;;;;;;;;;;;;;4931615;29;20406;-86
2021/06/29 13:03:46;;;;;;;;;;;;;;;;;;4937922;29;19971;-86
2021/06/29 13:06:14;;;;;;;;;;;;;;;;;;4933699;29;19922;-86
2021/06/29 13:08:40;;;;;;;;;;;;;;;;;;4930460;29;19915;-86
2021/06/29 13:11:06;;;;;;;;;;;;;;;;;;4927026;29;19919;-87
2021/06/29 13:13:32;;;;;;;;;;;;;;;;;;4914748;29;19923;-87
2021/06/29 13:15:58;;;;;;;;;;;;;;;;;;4930848;29;19922;-86
2021/06/29 13:18:25;;;;;;;;;;;;;;;;;;4929533;29;19915;-86
2021/06/29 13:20:52;;;;;;;;;;;;;;;;;;4926888;29;20005;-87
2021/06/29 13:23:18;;;;;;;;;;;;;;;;;;4928713;29;19915;-88
2021/06/29 13:25:44;;;;;;;;;;;;;;;;;;4927583;29;19950;-87
2021/06/29 13:28:10;;;;;;;;;;;;;;;;;;4925639;29;20006;-87
2021/06/29 13:30:36;;;;;;;;;;;;;;;;;;4904559;29;19916;-87
2021/06/29 13:33:02;;;;;;;;;;;;;;;;;;4918482;29;19922;-88
2021/06/29 13:35:29;;;;;;;;;;;;;;;;;;4918585;29;20373;-87
2021/06/29 13:37:59;;;;;;;;;;;;;;;;;;4919578;29;19919;-85
2021/06/29 13:40:26;;;;;;;;;;;;;;;;;;4920317;29;19915;-86
2021/06/29 13:42:53;;;;;;;;;;;;;;;;;;4918384;29;19919;-85
2021/06/29 13:45:19;;;;;;;;;;;;;;;;;;4917427;29;19922;-86
2021/06/29 13:47:45;;;;;;;;;;;;;;;;;;4920954;29;20032;-83
2021/06/29 13:50:11;;;;;;;;;;;;;;;;;;4915642;29;20006;-85
2021/06/29 13:52:38;;;;;;;;;;;;;;;;;;4914863;29;20010;-88
2021/06/29 13:55:04;;;;;;;;;;;;;;;;;;4908521;29;19920;-85
2021/06/29 13:57:30;;;;;;;;;;;;;;;;;;4911135;29;19922;-88
2021/06/29 13:59:56;;;;;;;;;;;;;;;;;;4896828;29;19915;-88
2021/06/29 14:02:22;;;;;;;;;;;;;;;;;;4910637;29;19929;-87
2021/06/29 14:04:49;;;;;;;;;;;;;;;;;;4913050;29;19915;-86
2021/06/29 14:07:16;;;;;;;;;;;;;;;;;;4912584;29;19915;-87
2021/06/29 14:09:42;;;;;;;;;;;;;;;;;;4913307;29;20359;-87
2021/06/29 14:12:08;;;;;;;;;;;;;;;;;;4910361;29;19923;-86
2021/06/29 14:14:36;;;;;;;;;;;;;;;;;;4910911;29;20314;-86
2021/06/29 14:17:02;;;;;;;;;;;;;;;;;;4912226;29;19923;-86
2021/06/29 14:19:28;;;;;;;;;;;;;;;;;;4913646;29;20371;-87
2021/06/29 14:21:55;;;;;;;;;;;;;;;;;;4910702;29;19951;-86
2021/06/29 14:24:21;;;;;;;;;;;;;;;;;;4914502;29;20354;-86
2021/06/29 14:26:47;;;;;;;;;;;;;;;;;;4910158;29;19933;-86
2021/06/29 14:29:13;;;;;;;;;;;;;;;;;;4912509;29;19951;-86
2021/06/29 14:31:39;;;;;;;;;;;;;;;;;;4910268;29;19966;-87
2021/06/29 14:34:05;;;;;;;;;;;;;;;;;;4915024;29;19927;-87
2021/06/29 14:36:35;;;;;;;;;;;;;;;;;;4911173;29;19923;-86
2021/06/29 14:39:01;;;;;;;;;;;;;;;;;;4912040;29;19986;-87
2021/06/29 14:41:27;;;;;;;;;;;;;;;;;;4909345;29;20014;-87
2021/06/29 14:43:53;;;;;;;;;;;;;;;;;;4909091;29;19919;-86
2021/06/29 14:46:19;;;;;;;;;;;;;;;;;;4910234;29;19930;-86
2021/06/29 14:48:46;;;;;;;;;;;;;;;;;;4911465;29;20439;-86
2021/06/29 14:51:12;;;;;;;;;;;;;;;;;;4907193;29;19919;-86
2021/06/29 14:53:38;;;;;;;;;;;;;;;;;;4908134;29;20838;-86
2021/06/29 14:56:04;;;;;;;;;;;;;;;;;;4908065;29;20014;-86
2021/06/29 14:58:30;;;;;;;;;;;;;;;;;;4911669;29;19922;-86
2021/06/29 15:00:56;;;;;;;;;;;;;;;;;;4912369;29;20342;-87
2021/06/29 15:03:22;;;;;;;;;;;;;;;;;;4920819;29;19923;-87
2021/06/29 15:05:48;;;;;;;;;;;;;;;;;;4916766;29;19923;-85
2021/06/29 15:08:15;;;;;;;;;;;;;;;;;;4918112;29;19961;-86
2021/06/29 15:10:41;;;;;;;;;;;;;;;;;;4919170;29;19919;-86
2021/06/29 15:13:08;;;;;;;;;;;;;;;;;;4917059;29;19938;-86
2021/06/29 15:15:34;;;;;;;;;;;;;;;;;;4913966;29;20302;-86
2021/06/29 15:18:00;;;;;;;;;;;;;;;;;;4918735;29;19957;-86
2021/06/29 15:20:26;;;;;;;;;;;;;;;;;;4912203;29;19983;-86
2021/06/29 15:22:52;;;;;;;;;;;;;;;;;;4913265;29;19919;-85
2021/06/29 15:25:22;;;;;;;;;;;;;;;;;;4913209;29;19924;-87
2021/06/29 15:27:49;;;;;;;;;;;;;;;;;;4910928;29;19972;-86
2021/06/29 15:30:15;;;;;;;;;;;;;;;;;;4912786;29;19911;-86
2021/06/29 15:32:41;;;;;;;;;;;;;;;;;;4917494;29;19915;-88
2021/06/29 15:35:07;;;;;;;;;;;;;;;;;;4921000;29;19923;-87
2021/06/29 15:37:34;;;;;;;;;;;;;;;;;;4924529;29;20525;-87
2021/06/29 15:40:00;;;;;;;;;;;;;;;;;;4915294;29;20256;-87
2021/06/29 15:42:26;;;;;;;;;;;;;;;;;;4898351;29;19923;-87
2021/06/29 15:44:52;;;;;;;;;;;;;;;;;;4915418;29;19930;-88
2021/06/29 15:47:18;;;;;;;;;;;;;;;;;;4913987;29;19919;-86
2021/06/29 15:49:44;;;;;;;;;;;;;;;;;;4914722;29;20009;-87
2021/06/29 15:52:10;;;;;;;;;;;;;;;;;;4899954;29;20282;-87
2021/06/29 15:54:36;;;;;;;;;;;;;;;;;;4903417;29;19919;-88
2021/06/29 15:57:02;;;;;;;;;;;;;;;;;;4897688;29;19926;-89
2021/06/29 15:59:28;;;;;;;;;;;;;;;;;;4902912;29;19915;-88
2021/06/29 16:01:55;;;;;;;;;;;;;;;;;;4902266;29;19990;-87
2021/06/29 16:04:21;;;;;;;;;;;;;;;;;;4905937;29;20386;-88
2021/06/29 16:06:49;;;;;;;;;;;;;;;;;;4897949;29;19921;-88
2021/06/29 16:09:15;;;;;;;;;;;;;;;;;;4902172;29;20407;-86
2021/06/29 16:11:41;;;;;;;;;;;;;;;;;;4889428;29;20435;-88
2021/06/29 16:14:07;;;;;;;;;;;;;;;;;;4901495;29;20747;-87
2021/06/29 16:16:33;;;;;;;;;;;;;;;;;;4909064;29;19926;-87
2021/06/29 16:19:00;;;;;;;;;;;;;;;;;;4896906;29;19930;-87
2021/06/29 16:21:26;;;;;;;;;;;;;;;;;;4921892;29;20599;-86
2021/06/29 16:23:52;;;;;;;;;;;;;;;;;;4918869;29;19915;-86
2021/06/29 16:26:19;;;;;;;;;;;;;;;;;;4920815;29;19922;-86
2021/06/29 16:28:45;;;;;;;;;;;;;;;;;;4915845;29;19919;-86
2021/06/29 16:31:11;;;;;;;;;;;;;;;;;;4897223;29;19954;-87
2021/06/29 16:33:37;;;;;;;;;;;;;;;;;;4892779;29;20421;-86
2021/06/29 16:36:09;;;;;;;;;;;;;;;;;;4909428;29;20462;-86
2021/06/29 16:38:35;;;;;;;;;;;;;;;;;;4912056;29;19927;-86
2021/06/29 16:41:01;;;;;;;;;;;;;;;;;;4893656;29;20007;-86